»·PEaware :: N217FU L88-KSBP

N217FU :: L88-KSBP

FLIGHT INFORMATION

Flight Status: Arrived
Operator: Privately registered:
United States
More flights under this callsign
Pilot: Christopher D. (33180)
Aircraft: CESSNA 172 SKYHAWK
(C172)
More flights by this aircraft type
Origin: L88 New Cuyama
United States
Destination: KSBP San Luis Co Regl
United States
More flights between these airports :: More routes between these airports
Route:
File this flight plan on PilotEdge
Remarks:
Altitude:
(Current/Filed)
6,500ft
Speed:
(Current/Filed)
100kts
Departed: 10-Jan-21 11:33 AM
Arrived: 10-Jan-21 12:03 PM
Distance/Time
Traveled:
6838nm/0:30
Distance/Time
To Go:
Arrived

Flight Plot

Page will automatically refresh every two minutes.


Map Options




Map Legend


Flown Route
Filed Route
Departure Airport
Arrival Airport
Navaid (VOR, NDB)
Fix

Horizontal Profiles

Position Reports

Time Latitude Longitude Heading Altitude Ground
Speed
10-Jan-21 11:25 0.000408 0.013975 359 3ft 0kts
10-Jan-21 11:26 34.942611 -119.690256 108 2174ft 0kts
10-Jan-21 11:27 34.942611 -119.690255 108 2153ft 0kts
10-Jan-21 11:28 34.942611 -119.690255 108 2153ft 0kts
10-Jan-21 11:29 34.942611 -119.690255 108 2153ft 0kts
10-Jan-21 11:30 34.942611 -119.690255 108 2153ft 0kts
10-Jan-21 11:31 34.942732 -119.691260 201 2150ft 0kts
10-Jan-21 11:32 34.938496 -119.677142 73 2454ft 72kts
10-Jan-21 11:33 34.951147 -119.690748 289 3108ft 85kts
10-Jan-21 11:34 34.959074 -119.718399 288 3853ft 87kts
10-Jan-21 11:35 34.966940 -119.746574 288 4544ft 88kts
10-Jan-21 11:36 34.974902 -119.775002 288 5202ft 89kts
10-Jan-21 11:37 34.982972 -119.803813 288 5837ft 90kts
10-Jan-21 11:38 34.991090 -119.832821 288 6422ft 95kts
10-Jan-21 11:39 35.001010 -119.868520 288 6502ft 121kts
10-Jan-21 11:40 35.012062 -119.908351 288 6506ft 124kts
10-Jan-21 11:41 35.023195 -119.948508 288 6507ft 124kts
10-Jan-21 11:42 35.034303 -119.988629 287 6507ft 124kts
10-Jan-21 11:43 35.044959 -120.028974 287 6506ft 124kts
10-Jan-21 11:44 35.055502 -120.069281 287 6511ft 125kts
10-Jan-21 11:45 35.066106 -120.109691 287 6510ft 124kts
10-Jan-21 11:46 35.076732 -120.150265 287 6512ft 125kts
10-Jan-21 11:47 35.087329 -120.190759 287 6509ft 125kts
10-Jan-21 11:48 35.097994 -120.231382 287 6510ft 125kts
10-Jan-21 11:49 35.109372 -120.271540 290 6508ft 125kts
10-Jan-21 11:50 35.121697 -120.311368 290 6509ft 125kts
10-Jan-21 11:51 35.134058 -120.351119 290 6509ft 125kts
10-Jan-21 11:52 35.146390 -120.390770 290 6510ft 125kts
10-Jan-21 11:53 35.158852 -120.430828 290 6310ft 129kts
10-Jan-21 11:54 35.171799 -120.472453 290 5509ft 131kts
10-Jan-21 11:55 35.184474 -120.513170 290 4704ft 126kts
10-Jan-21 11:56 35.196321 -120.551031 290 3897ft 114kts
10-Jan-21 11:57 35.210069 -120.541922 105 3111ft 117kts
10-Jan-21 11:58 35.211902 -120.514782 309 2839ft 102kts
10-Jan-21 11:59 35.214762 -120.553064 271 2152ft 115kts
10-Jan-21 12:00 35.219504 -120.591211 272 1505ft 117kts
10-Jan-21 12:01 35.226649 -120.623268 304 610ft 86kts
10-Jan-21 12:02 35.237530 -120.639959 7 194ft 5kts
10-Jan-21 12:03 35.237543 -120.639957 7 194ft 0kts
10-Jan-21 12:04 35.237543 -120.639957 7 194ft 0kts
10-Jan-21 12:05 35.237543 -120.639957 7 194ft 0kts
10-Jan-21 12:06 35.237940 -120.638322 118 196ft 0kts
10-Jan-21 12:07 35.237940 -120.638322 118 196ft 0kts
10-Jan-21 12:08 35.237940 -120.638322 118 196ft 0kts
10-Jan-21 12:09 35.237940 -120.638322 118 196ft 0kts
10-Jan-21 12:10 35.237940 -120.638322 118 196ft 0kts
10-Jan-21 12:11 35.237940 -120.638322 118 196ft 0kts
10-Jan-21 12:12 0.000408 0.013975 360 3ft 0kts
10-Jan-21 12:13 0.000408 0.013975 360 3ft 0kts
10-Jan-21 12:14 0.000408 0.013975 360 3ft 0kts
10-Jan-21 12:15 0.000408 0.013975 360 3ft 0kts
10-Jan-21 12:16 0.000408 0.013975 360 3ft 0kts

Navigation Log

Ident Type
Flight plan parsing failed, navigation log unavailable